createdAt,value
2018-08-04T00:00:00.739Z,4.5
2018-08-04T00:05:00.681Z,4.5
2018-08-04T00:10:00.811Z,4.9
2018-08-04T00:15:00.681Z,5.1
2018-08-04T00:20:00.782Z,5.2
2018-08-04T00:25:00.715Z,5.4
2018-08-04T00:30:00.687Z,5.6
2018-08-04T00:40:00.756Z,5.3
2018-08-04T00:45:00.734Z,5.2
2018-08-04T00:50:00.802Z,5.6
2018-08-04T00:55:00.806Z,5.8
2018-08-04T01:00:00.808Z,5.9
2018-08-04T01:05:00.744Z,6.1
2018-08-04T01:10:00.768Z,6.3
2018-08-04T01:15:00.749Z,6.0
2018-08-04T01:20:00.824Z,5.6
2018-08-04T01:25:00.753Z,5.4
2018-08-04T01:30:00.808Z,5.4
2018-08-04T01:35:00.741Z,5.6
2018-08-04T01:45:00.713Z,5.6
2018-08-04T01:50:00.847Z,5.7
2018-08-04T02:00:00.794Z,5.7
2018-08-04T02:05:00.719Z,6.1
2018-08-04T02:10:00.786Z,6.3
2018-08-04T02:15:00.722Z,6.6
2018-08-04T02:20:00.785Z,6.8
2018-08-04T02:25:00.727Z,7.2
2018-08-04T02:30:00.790Z,6.8
2018-08-04T02:35:00.731Z,6.9
2018-08-04T02:40:00.798Z,7.2
2018-08-04T02:45:00.736Z,7.3
2018-08-04T02:50:00.737Z,7.2
2018-08-04T02:55:00.743Z,7.8
2018-08-04T03:00:00.867Z,7.8
2018-08-04T03:05:00.741Z,7.7
2018-08-04T03:10:00.836Z,7.6
2018-08-04T03:15:00.769Z,7.5
2018-08-04T03:20:00.909Z,7.5
2018-08-04T03:25:00.773Z,7.5
2018-08-04T03:30:00.898Z,7.3
2018-08-04T03:35:00.770Z,7.3
2018-08-04T03:40:00.849Z,7.0
2018-08-04T03:45:00.776Z,6.7
2018-08-04T03:55:00.748Z,6.4
2018-08-04T04:00:00.878Z,6.5
2018-08-04T04:05:00.754Z,6.6
2018-08-04T04:10:00.878Z,7.0
2018-08-04T04:15:00.755Z,7.0
2018-08-04T04:20:00.833Z,7.3
2018-08-04T04:25:00.757Z,7.3
2018-08-04T04:30:00.763Z,7.4
2018-08-04T04:35:00.758Z,7.5
2018-08-04T04:40:01.917Z,7.7
2018-08-04T04:45:00.767Z,8.0
2018-08-04T04:50:00.905Z,8.3
2018-08-04T04:55:00.774Z,8.6
2018-08-04T05:00:00.839Z,9.2
2018-08-04T05:05:00.770Z,9.8
2018-08-04T05:10:00.908Z,9.8
2018-08-04T05:15:00.783Z,10.2
2018-08-04T05:20:00.837Z,10.1
2018-08-04T05:25:00.776Z,10.2
2018-08-04T05:30:00.842Z,10.6
2018-08-04T05:35:00.808Z,10.8
2018-08-04T05:40:00.884Z,10.6
2018-08-04T05:45:00.816Z,10.9
2018-08-04T05:50:01.136Z,10.2
2018-08-04T05:55:00.816Z,10.0
2018-08-04T06:00:00.953Z,10.2
2018-08-04T06:05:00.811Z,10.6
2018-08-04T06:10:00.813Z,10.6
2018-08-04T06:15:00.823Z,11.0
2018-08-04T06:20:00.891Z,10.2
2018-08-04T06:25:00.829Z,9.6
2018-08-04T06:30:00.833Z,8.8
2018-08-04T06:35:00.817Z,8.2
2018-08-04T06:40:00.848Z,7.6
2018-08-04T06:45:00.829Z,7.2
2018-08-04T06:50:00.888Z,6.8
2018-08-04T06:55:00.836Z,6.2
2018-08-04T07:00:00.831Z,5.6
2018-08-04T07:05:00.842Z,5.0
2018-08-04T07:10:00.957Z,4.4
2018-08-04T07:15:00.840Z,3.7
2018-08-04T07:20:00.970Z,3.1
2018-08-04T07:25:00.812Z,2.7
2018-08-04T07:30:00.905Z,2.3
2018-08-04T07:35:00.839Z,1.9
2018-08-04T07:40:00.980Z,1.6
2018-08-04T07:45:00.853Z,1.6
2018-08-04T07:55:00.829Z,1.2
2018-08-04T08:00:00.957Z,1.2
2018-08-04T08:05:00.962Z,1.6
2018-08-04T08:10:00.883Z,1.4
2018-08-04T08:15:00.868Z,1.4
2018-08-04T08:20:00.999Z,1.4
2018-08-04T08:25:00.872Z,1.2
2018-08-04T08:30:00.931Z,0.8
2018-08-04T08:35:00.871Z,1.0
2018-08-04T08:40:01.020Z,1.6
2018-08-04T08:45:00.879Z,2.1
2018-08-04T08:50:00.945Z,2.5
2018-08-04T08:55:00.872Z,2.5
2018-08-04T09:00:00.934Z,2.3
2018-08-04T09:05:00.872Z,1.7
2018-08-04T09:10:00.948Z,1.2
2018-08-04T09:15:00.849Z,1.1
2018-08-04T09:20:00.960Z,0.9
2018-08-04T09:25:00.855Z,0.9
2018-08-04T09:30:00.978Z,0.6
2018-08-04T09:35:00.873Z,0.4
2018-08-04T09:40:00.916Z,0.4
2018-08-04T09:45:00.859Z,0.6
2018-08-04T09:50:00.852Z,0.6
2018-08-04T09:55:00.891Z,0.8
2018-08-04T10:00:00.948Z,1.0
2018-08-04T10:05:00.967Z,1.2
2018-08-04T10:10:00.962Z,1.0
2018-08-04T10:15:00.901Z,0.9
2018-08-04T10:20:00.907Z,0.9
2018-08-04T10:25:00.905Z,0.9
2018-08-04T10:30:01.041Z,0.7
2018-08-04T10:35:00.923Z,0.8
2018-08-04T10:45:00.953Z,0.6
2018-08-04T11:00:01.042Z,0.4
2018-08-04T11:05:00.888Z,0.6
2018-08-04T11:10:01.015Z,0.8
2018-08-04T11:15:00.893Z,0.6
2018-08-04T11:20:01.028Z,0.6
2018-08-04T11:25:00.897Z,0.4
2018-08-04T11:30:00.958Z,0.2
2018-08-04T11:40:01.035Z,0.0
2018-08-04T11:45:00.908Z,0.0
2018-08-04T11:50:00.905Z,0.0
2018-08-04T11:55:00.904Z,0.1
2018-08-04T12:00:00.903Z,0.1
2018-08-04T12:05:00.906Z,0.3
2018-08-04T12:10:01.063Z,0.3
2018-08-04T12:15:00.932Z,0.3
2018-08-04T12:20:00.937Z,0.2
2018-08-04T12:25:00.940Z,0.2
2018-08-04T12:30:00.940Z,0.0
2018-08-04T12:35:00.944Z,0.0
2018-08-04T12:40:01.066Z,0.0
2018-08-04T12:45:00.926Z,0.0
2018-08-04T12:50:01.053Z,0.0
2018-08-04T12:55:00.928Z,0.0
2018-08-04T13:00:00.993Z,0.0
2018-08-04T13:05:00.923Z,0.0
2018-08-04T13:10:00.993Z,0.0
2018-08-04T13:15:00.966Z,0.0
2018-08-04T13:20:00.956Z,0.0
2018-08-04T13:25:00.963Z,0.0
2018-08-04T13:30:01.024Z,0.0
2018-08-04T13:35:00.959Z,0.0
2018-08-04T13:45:01.002Z,0.0
2018-08-04T13:50:00.936Z,0.0
2018-08-04T14:00:01.010Z,0.0
2018-08-04T14:10:01.008Z,0.2
2018-08-04T14:15:00.945Z,0.2
2018-08-04T14:25:01.010Z,0.2
2018-08-04T14:30:01.085Z,0.0
2018-08-04T14:35:01.263Z,0.1
2018-08-04T14:45:01.091Z,0.3
2018-08-04T14:50:01.022Z,0.3
2018-08-04T14:55:01.102Z,0.3
2018-08-04T15:00:01.096Z,0.2
2018-08-04T15:05:01.372Z,0.2
2018-08-04T15:10:01.389Z,0.2
2018-08-04T15:15:01.003Z,0.2
2018-08-04T15:20:01.135Z,0.2
2018-08-04T15:25:01.007Z,0.2
2018-08-04T15:30:01.012Z,0.2
2018-08-04T15:35:01.002Z,0.0
2018-08-04T15:40:01.094Z,0.2
2018-08-04T15:45:01.014Z,0.2
2018-08-04T15:50:01.004Z,0.2
2018-08-04T15:55:01.006Z,0.2
2018-08-04T16:00:01.011Z,0.2
2018-08-04T16:05:01.012Z,0.0
2018-08-04T16:10:01.029Z,0.0
2018-08-04T16:15:01.018Z,0.0
2018-08-04T16:20:01.078Z,0.0
2018-08-04T16:25:01.095Z,0.0
2018-08-04T16:30:06.055Z,0.0
2018-08-04T16:35:00.987Z,0.0
2018-08-04T16:40:01.117Z,0.0
2018-08-04T16:45:00.986Z,0.0
2018-08-04T17:00:00.995Z,0.0
2018-08-04T17:05:01.004Z,0.0
2018-08-04T17:15:01.068Z,0.0
2018-08-04T17:20:01.006Z,0.0
2018-08-04T17:25:01.011Z,0.0
2018-08-04T17:30:01.010Z,0.0
2018-08-04T17:35:01.010Z,0.0
2018-08-04T17:40:01.016Z,0.0
2018-08-04T17:45:01.018Z,0.0
2018-08-04T18:00:01.014Z,0.1
2018-08-04T18:05:01.021Z,0.2
2018-08-04T18:15:01.091Z,0.2
2018-08-04T18:25:01.028Z,0.2
2018-08-04T18:30:01.337Z,0.0
2018-08-04T18:35:01.031Z,0.2
2018-08-04T18:40:01.091Z,0.2
2018-08-04T18:45:01.032Z,0.6
2018-08-04T18:50:01.305Z,1.0
2018-08-04T18:55:01.030Z,1.4
2018-08-04T19:00:01.102Z,1.8
2018-08-04T19:05:01.037Z,2.5
2018-08-04T19:10:01.098Z,2.7
2018-08-04T19:15:01.039Z,2.9
2018-08-04T19:25:01.107Z,3.1
2018-08-04T19:30:01.048Z,3.1
2018-08-04T19:40:01.047Z,3.2
2018-08-04T19:45:01.046Z,3.2
2018-08-04T19:50:01.143Z,3.2
2018-08-04T19:55:01.041Z,3.3
2018-08-04T20:00:01.180Z,3.3
2018-08-04T20:15:01.184Z,3.7
2018-08-04T20:20:01.123Z,3.9
2018-08-04T20:25:01.066Z,3.9
2018-08-04T20:30:01.061Z,4.3
2018-08-04T20:35:01.415Z,4.2
2018-08-04T20:40:01.077Z,4.0
2018-08-04T20:45:01.070Z,4.1
2018-08-04T20:50:01.067Z,4.2
2018-08-04T20:55:01.062Z,4.2
2018-08-04T21:00:01.069Z,4.2
2018-08-04T21:05:01.076Z,4.4
2018-08-04T21:10:01.104Z,4.4
2018-08-04T21:15:01.101Z,4.4
2018-08-04T21:20:01.096Z,4.2
2018-08-04T21:25:01.103Z,4.2
2018-08-04T21:30:01.109Z,3.9
2018-08-04T21:35:01.109Z,3.7
2018-08-04T21:40:01.105Z,3.6
2018-08-04T21:45:01.119Z,3.2
2018-08-04T21:50:01.092Z,2.9
2018-08-04T21:55:01.088Z,2.7
2018-08-04T22:00:01.162Z,2.8
2018-08-04T22:05:01.121Z,2.7
2018-08-04T22:10:01.159Z,2.8
2018-08-04T22:15:01.103Z,3.0
2018-08-04T22:20:01.107Z,2.9
2018-08-04T22:25:01.105Z,2.6
2018-08-04T22:30:01.106Z,2.4
2018-08-04T22:35:01.101Z,2.2
2018-08-04T22:40:01.130Z,2.0
2018-08-04T22:45:01.140Z,2.2
2018-08-04T23:00:01.578Z,1.8
2018-08-04T23:06:01.413Z,1.8
2018-08-04T23:11:01.435Z,1.6
2018-08-04T23:16:06.398Z,1.5
2018-08-04T23:21:01.506Z,1.5
2018-08-04T23:31:01.495Z,1.6
2018-08-04T23:37:01.382Z,1.8
2018-08-04T23:42:01.441Z,2.0
2018-08-04T23:52:01.450Z,2.1
2018-08-04T23:57:01.386Z,2.1
